Terminal Aerodrome Forecast
Issued by NWS

Home | Current Version | Previous Version | Text Only | Print | Product List | Glossary On
Versions: 1 2 3 4 5 6 7 8 9 10 11 12 13 14 15
000
FTAK31 PAFA 231734
TAFAOM
TAF
PAOM 231734Z 2318/2418 10005KT P6SM -RA OVC018
     FM232300 36007KT P6SM SCT025 BKN050 BKN100
     FM240200 36007KT P6SM SCT050 SCT100
     FM241200 32005KT P6SM FEW250=

USA.gov is the U.S. government's official web portal to all federal, state and local government web resources and services.